Hillsborough, NC (27278)

2:04 PM EST on December 09, 2016 (GMT -0500)
Lawrence Road | | Change Station

Elev 679 ft 36.07 °N, 79.06 °W | Updated 8 minutes ago

Clear
Clear
37.4 °F
Feels Like 37 °F
N
1.2
Wind Variable Wind from West
Gusts 4.3 mph

Today
High -- | Low -- °F
--% Chance of Precip.
Yesterday
High -- | Low -- °F
Precip. -- in
Pressure 30.38 in
Visibility 10.0 miles
Clouds Clear
Windchill 37 °F
Dew Point 17 °F
Humidity 44%
Rainfall 0.00 in
Snow Depth Not available.
7:15 AM 5:02 PM
Waxing Gibbous, 76% visible
METAR KIGX 091856Z AUTO 32009KT 10SM CLR 04/M10 A3038 RMK AO2 SLP288 T00391100
Pressure 30.38 in
Visibility 10.0 miles
Clouds Clear
Windchill 37 °F
Dew Point 17 °F
Humidity 44%
Rainfall 0.00 in
Snow Depth Not available.
7:15 AM 5:02 PM
Waxing Gibbous, 76% visible
METAR KIGX 091856Z AUTO 32009KT 10SM CLR 04/M10 A3038 RMK AO2 SLP288 T00391100

10-Day Weather Forecast

Almanac

Astronomy

Dec. 09, 2016 Rise Set
Actual Time
Civil Twilight
Nautical Twilight
Astronomical Twilight
Moon
Length of Visible Light
Length of Day
Tomorrow will be .
, % of the Moon is Illuminated

Today's Extremes

State Highs State Lows

Community

WunderPhotos

Upload Photos

1,956,499 photos uploaded!

WunderBlog® & News

Nearby

Air Quality

  Air Quality AQ Index Pollutant
Not available.

Snow Depth

Station Depth Elevation

Earthquake Activity

City Distance Mag. Time & Date
Minimum magnitude displayed is 2.5.

Coastal Water Temperatures

Place Temperature

Stations

Nearby Weather Stations

Station Location Temp. Windchill Dew Point Humidity Wind Precip. Elev Updated Type
                   

Watches & Warnings

There are currently no watches in effect.